createdAt,value
2022-11-10T00:01:30.273Z,101042.63
2022-11-10T00:04:03.597Z,101042.25
2022-11-10T00:06:38.207Z,101039.09
2022-11-10T00:09:17.448Z,101035.81
2022-11-10T00:11:55.796Z,101036.16
2022-11-10T00:14:45.469Z,101038.56
2022-11-10T00:17:19.493Z,101029.56
2022-11-10T00:19:53.743Z,101032.38
2022-11-10T00:22:27.761Z,101030.72
2022-11-10T00:25:01.670Z,101035.19
2022-11-10T00:27:41.144Z,101029.56
2022-11-10T00:30:17.240Z,101028.38
2022-11-10T00:32:52.837Z,101033.63
2022-11-10T00:35:29.727Z,101032.00
2022-11-10T00:38:06.075Z,101029.19
2022-11-10T00:40:53.949Z,101026.75
2022-11-10T00:43:30.635Z,101023.47
2022-11-10T00:46:07.613Z,101019.81
2022-11-10T00:48:40.772Z,101029.81
2022-11-10T00:51:21.795Z,101031.81
2022-11-10T00:53:55.392Z,101033.78
2022-11-10T00:56:29.646Z,101034.63
2022-11-10T00:59:09.073Z,101035.09
2022-11-10T01:01:42.858Z,101028.63
2022-11-10T01:04:18.828Z,101024.66
2022-11-10T01:07:07.888Z,101027.91
2022-11-10T01:09:43.373Z,101028.72
2022-11-10T01:12:18.975Z,101023.09
2022-11-10T01:14:56.061Z,101023.47
2022-11-10T01:17:33.041Z,101020.19
2022-11-10T01:20:09.748Z,101003.22
2022-11-10T01:22:43.648Z,101012.38
2022-11-10T01:25:20.709Z,101009.47
2022-11-10T01:27:56.320Z,101019.00
2022-11-10T01:30:32.850Z,101017.72
2022-11-10T01:33:09.487Z,101026.06
2022-11-10T01:35:45.239Z,101025.94
2022-11-10T01:38:22.366Z,101033.50
2022-11-10T01:40:58.811Z,101033.03
2022-11-10T01:43:35.085Z,101035.47
2022-11-10T01:46:12.525Z,101027.50
2022-11-10T01:48:51.872Z,101022.72
2022-11-10T01:51:32.729Z,101024.69
2022-11-10T01:54:26.859Z,101020.59
2022-11-10T01:57:08.733Z,101033.03
2022-11-10T01:59:49.845Z,101026.59
2022-11-10T02:02:46.223Z,101030.22
2022-11-10T02:05:23.479Z,101031.84
2022-11-10T02:08:01.572Z,101031.16
2022-11-10T02:10:36.096Z,101029.59
2022-11-10T02:13:10.289Z,101032.88
2022-11-10T02:15:47.883Z,101033.34
2022-11-10T02:18:27.235Z,101035.78
2022-11-10T02:21:08.219Z,101027.34
2022-11-10T02:23:55.280Z,101033.34
2022-11-10T02:26:34.054Z,101038.97
2022-11-10T02:29:09.154Z,101028.88
2022-11-10T02:31:48.441Z,101023.25
2022-11-10T02:34:28.015Z,101033.69
2022-11-10T02:37:09.088Z,101038.84
2022-11-10T02:39:44.220Z,101038.84
2022-11-10T02:42:22.508Z,101036.03
2022-11-10T02:44:59.240Z,101041.66
2022-11-10T02:47:34.892Z,101034.06
2022-11-10T02:50:09.324Z,101031.25
2022-11-10T02:52:50.953Z,101032.78
2022-11-10T02:55:25.874Z,101039.91
2022-11-10T02:58:02.982Z,101039.81
2022-11-10T03:00:39.331Z,101040.88
2022-11-10T03:03:17.509Z,101043.22
2022-11-10T03:05:51.653Z,101043.97
2022-11-10T03:08:27.800Z,101045.94
2022-11-10T03:11:01.410Z,101046.78
2022-11-10T03:13:58.583Z,101052.41
2022-11-10T03:16:29.118Z,101049.94
2022-11-10T03:19:03.169Z,101046.78
2022-11-10T03:21:38.854Z,101053.56
2022-11-10T03:24:17.696Z,101063.19
2022-11-10T03:26:52.078Z,101061.19
2022-11-10T03:29:26.587Z,101069.28
2022-11-10T03:31:57.547Z,101071.25
2022-11-10T03:34:31.629Z,101061.19
2022-11-10T03:37:02.520Z,101062.00
2022-11-10T03:39:34.872Z,101063.19
2022-11-10T03:42:05.765Z,101067.53
2022-11-10T03:44:35.723Z,101073.03
2022-11-10T03:47:05.627Z,101064.50
2022-11-10T03:49:36.322Z,101068.03
2022-11-10T03:52:07.448Z,101079.63
2022-11-10T03:54:40.004Z,101081.63
2022-11-10T03:57:09.856Z,101090.06
2022-11-10T03:59:40.239Z,101089.69
2022-11-10T04:02:10.759Z,101092.19
2022-11-10T04:04:57.845Z,101080.94
2022-11-10T04:07:44.691Z,101080.94
2022-11-10T04:10:17.787Z,101086.91
2022-11-10T04:13:04.623Z,101085.25
2022-11-10T04:15:47.382Z,101090.78
2022-11-10T04:18:24.962Z,101095.59
2022-11-10T04:20:57.866Z,101097.56
2022-11-10T04:23:35.735Z,101097.22
2022-11-10T04:26:26.814Z,101095.69
2022-11-10T04:28:59.604Z,101099.31
2022-11-10T04:31:33.959Z,101102.22
2022-11-10T04:34:04.208Z,101101.88
2022-11-10T04:36:37.371Z,101097.44
2022-11-10T04:39:09.771Z,101096.59
2022-11-10T04:41:42.341Z,101106.25
2022-11-10T04:44:12.321Z,101098.25
2022-11-10T04:46:44.578Z,101098.34
2022-11-10T04:49:15.279Z,101099.75
2022-11-10T04:51:45.828Z,101106.41
2022-11-10T04:54:15.959Z,101109.06
2022-11-10T04:56:48.080Z,101111.84
2022-11-10T04:59:18.561Z,101109.44
2022-11-10T05:01:48.881Z,101111.00
2022-11-10T05:04:19.462Z,101109.38
2022-11-10T05:06:49.481Z,101113.88
2022-11-10T05:09:19.994Z,101118.34
2022-11-10T05:11:52.298Z,101126.06
2022-11-10T05:14:22.283Z,101126.50
2022-11-10T05:16:52.504Z,101130.56
2022-11-10T05:19:22.687Z,101145.09
2022-11-10T05:21:53.293Z,101142.69
2022-11-10T05:24:23.272Z,101137.81
2022-11-10T05:26:55.698Z,101134.19
2022-11-10T05:29:26.327Z,101139.38
2022-11-10T05:31:56.500Z,101139.28
2022-11-10T05:34:26.985Z,101148.88
2022-11-10T05:36:57.859Z,101144.75
2022-11-10T05:39:27.953Z,101145.44
2022-11-10T05:42:00.675Z,101150.16
2022-11-10T05:44:31.161Z,101160.25
2022-11-10T05:47:01.653Z,101168.28
2022-11-10T05:49:32.230Z,101159.81
2022-11-10T05:52:02.585Z,101164.19
2022-11-10T05:54:32.704Z,101174.97
2022-11-10T05:57:04.661Z,101181.69
2022-11-10T05:59:35.602Z,101180.69
2022-11-10T06:02:05.565Z,101173.53
2022-11-10T06:04:39.048Z,101179.31
2022-11-10T06:07:10.629Z,101170.91
2022-11-10T06:09:40.999Z,101179.13
2022-11-10T06:12:13.893Z,101173.16
2022-11-10T06:14:44.758Z,101174.91
2022-11-10T06:17:15.137Z,101171.38
2022-11-10T06:19:45.060Z,101165.84
2022-11-10T06:22:15.608Z,101170.38
2022-11-10T06:24:46.237Z,101162.34
2022-11-10T06:27:18.112Z,101170.09
2022-11-10T06:29:48.517Z,101176.22
2022-11-10T06:32:19.410Z,101182.38
2022-11-10T06:34:49.786Z,101177.59
2022-11-10T06:37:20.309Z,101176.78
2022-11-10T06:39:50.478Z,101182.06
2022-11-10T06:42:22.613Z,101188.16
2022-11-10T06:44:53.147Z,101196.28
2022-11-10T06:47:23.725Z,101195.06
2022-11-10T06:49:54.305Z,101210.09
2022-11-10T06:52:24.371Z,101204.44
2022-11-10T06:54:54.775Z,101205.28
2022-11-10T06:57:26.468Z,101197.63
2022-11-10T06:59:57.111Z,101207.41
2022-11-10T07:02:27.549Z,101202.16
2022-11-10T07:04:58.200Z,101203.41
2022-11-10T07:07:28.005Z,101205.09
2022-11-10T07:10:00.536Z,101200.25
2022-11-10T07:12:35.736Z,101198.22
2022-11-10T07:15:06.591Z,101203.97
2022-11-10T07:17:43.587Z,101199.09
2022-11-10T07:20:14.723Z,101190.19
2022-11-10T07:22:44.892Z,101189.78
2022-11-10T07:25:15.209Z,101180.44
2022-11-10T07:27:47.075Z,101184.16
2022-11-10T07:30:17.765Z,101184.16
2022-11-10T07:32:48.400Z,101183.34
2022-11-10T07:35:19.045Z,101180.94
2022-11-10T07:37:49.699Z,101187.03
2022-11-10T07:40:19.979Z,101186.22
2022-11-10T07:42:51.402Z,101188.25
2022-11-10T07:45:21.404Z,101194.75
2022-11-10T07:47:51.987Z,101194.78
2022-11-10T07:50:22.200Z,101186.63
2022-11-10T07:52:53.123Z,101191.13
2022-11-10T07:55:23.157Z,101183.78
2022-11-10T07:57:59.892Z,101185.44
2022-11-10T08:00:30.039Z,101192.38
2022-11-10T08:03:05.818Z,101183.81
2022-11-10T08:05:37.389Z,101198.03
2022-11-10T08:08:07.978Z,101191.50
2022-11-10T08:10:38.622Z,101185.78
2022-11-10T08:13:12.847Z,101183.75
2022-11-10T08:15:44.719Z,101189.47
2022-11-10T08:18:21.760Z,101186.22
2022-11-10T08:20:51.924Z,101185.78
2022-11-10T08:23:22.235Z,101185.75
2022-11-10T08:25:53.726Z,101181.69
2022-11-10T08:28:26.645Z,101182.09
2022-11-10T08:31:01.512Z,101180.47
2022-11-10T08:33:34.616Z,101186.19
2022-11-10T08:36:05.359Z,101181.72
2022-11-10T08:38:35.364Z,101179.28
2022-11-10T08:41:05.816Z,101177.66
2022-11-10T08:43:38.235Z,101174.41
2022-11-10T08:46:09.618Z,101174.00
2022-11-10T08:48:40.111Z,101167.50
2022-11-10T08:51:10.250Z,101164.25
2022-11-10T08:53:40.248Z,101167.47
2022-11-10T08:56:11.224Z,101166.69
2022-11-10T08:58:50.203Z,101163.44
2022-11-10T09:01:23.282Z,101162.63
2022-11-10T09:03:53.898Z,101158.97
2022-11-10T09:06:24.491Z,101155.72
2022-11-10T09:08:54.991Z,101154.53
2022-11-10T09:11:25.394Z,101159.41
2022-11-10T09:13:57.425Z,101154.91
2022-11-10T09:16:27.855Z,101151.66
2022-11-10T09:18:57.998Z,101148.38
2022-11-10T09:21:28.448Z,101150.44
2022-11-10T09:23:58.884Z,101145.56
2022-11-10T09:26:29.224Z,101150.44
2022-11-10T09:29:01.191Z,101143.50
2022-11-10T09:31:31.672Z,101151.25
2022-11-10T09:34:02.123Z,101150.81
2022-11-10T09:36:32.690Z,101153.25
2022-11-10T09:39:03.606Z,101153.22
2022-11-10T09:41:34.014Z,101156.06
2022-11-10T09:44:20.358Z,101150.78
2022-11-10T09:47:00.376Z,101146.69
2022-11-10T09:49:40.698Z,101145.47
2022-11-10T09:52:15.109Z,101145.84
2022-11-10T09:54:51.627Z,101139.34
2022-11-10T09:57:28.297Z,101137.72
2022-11-10T09:59:59.985Z,101134.03
2022-11-10T10:02:38.125Z,101133.22
2022-11-10T10:05:38.160Z,101132.38
2022-11-10T10:08:13.590Z,101136.00
2022-11-10T10:10:50.008Z,101135.56
2022-11-10T10:13:47.672Z,101126.19
2022-11-10T10:16:31.577Z,101129.38
2022-11-10T10:19:14.198Z,101127.69
2022-11-10T10:22:04.634Z,101124.81
2022-11-10T10:24:35.116Z,101130.47
2022-11-10T10:27:14.130Z,101132.47
2022-11-10T10:29:49.602Z,101124.75
2022-11-10T10:32:23.829Z,101123.53
2022-11-10T10:34:54.578Z,101118.63
2022-11-10T10:37:37.106Z,101114.56
2022-11-10T10:40:08.507Z,101110.06
2022-11-10T10:42:41.249Z,101112.47
2022-11-10T10:45:24.787Z,101110.81
2022-11-10T10:48:00.159Z,101114.84
2022-11-10T10:50:36.665Z,101117.69
2022-11-10T10:53:17.042Z,101107.13
2022-11-10T10:56:00.519Z,101112.38
2022-11-10T10:58:34.020Z,101106.66
2022-11-10T11:01:10.311Z,101106.25
2022-11-10T11:03:49.100Z,101108.28
2022-11-10T11:06:27.701Z,101109.09
2022-11-10T11:09:01.736Z,101099.75
2022-11-10T11:11:35.447Z,101103.00
2022-11-10T11:14:23.327Z,101100.97
2022-11-10T11:16:57.005Z,101101.31
2022-11-10T11:19:33.205Z,101095.19
2022-11-10T11:22:48.107Z,101101.63
2022-11-10T11:25:31.462Z,101102.81
2022-11-10T11:28:17.279Z,101101.16
2022-11-10T11:31:07.016Z,101099.09
2022-11-10T11:33:50.158Z,101104.31
2022-11-10T11:36:41.517Z,101106.28
2022-11-10T11:39:33.442Z,101108.66
2022-11-10T11:42:22.172Z,101107.38
2022-11-10T11:45:14.115Z,101105.72
2022-11-10T11:48:05.979Z,101112.53
2022-11-10T11:50:46.210Z,101117.38
2022-11-10T11:53:44.978Z,101114.91
2022-11-10T11:56:27.095Z,101120.13
2022-11-10T11:59:21.301Z,101125.41
2022-11-10T12:02:31.099Z,101129.00
2022-11-10T12:05:19.642Z,101132.63
2022-11-10T12:08:01.944Z,101133.00
2022-11-10T12:10:51.241Z,101124.88
2022-11-10T12:13:47.362Z,101126.88
2022-11-10T12:16:29.423Z,101132.50
2022-11-10T12:19:15.714Z,101133.69
2022-11-10T12:21:54.491Z,101136.47
2022-11-10T12:24:58.810Z,101138.84
2022-11-10T12:27:38.120Z,101135.53
2022-11-10T12:30:15.171Z,101137.09
2022-11-10T12:32:55.873Z,101139.94
2022-11-10T12:35:31.602Z,101144.00
2022-11-10T12:38:08.710Z,101152.84
2022-11-10T12:40:44.298Z,101138.19
2022-11-10T12:43:31.517Z,101151.50
2022-11-10T12:46:07.389Z,101153.06
2022-11-10T12:48:50.475Z,101151.81
2022-11-10T12:51:31.795Z,101156.22
2022-11-10T12:54:02.254Z,101158.16
2022-11-10T12:56:43.212Z,101152.06
2022-11-10T12:59:35.657Z,101149.63
2022-11-10T13:02:20.063Z,101156.88
2022-11-10T13:05:12.918Z,101155.25
2022-11-10T13:07:44.441Z,101149.16
2022-11-10T13:10:28.835Z,101166.13
2022-11-10T13:13:08.727Z,101156.75
2022-11-10T13:16:02.489Z,101165.66
2022-11-10T13:19:00.008Z,101151.88
2022-11-10T13:22:14.460Z,101151.00
2022-11-10T13:24:47.326Z,101150.16
2022-11-10T13:27:58.226Z,101149.72
2022-11-10T13:30:45.897Z,101159.84
2022-11-10T13:33:40.139Z,101157.78
2022-11-10T13:36:12.036Z,101156.13
2022-11-10T13:38:44.686Z,101171.13
2022-11-10T13:41:28.945Z,101165.03
2022-11-10T13:44:00.769Z,101169.84
2022-11-10T13:46:39.374Z,101162.56
2022-11-10T13:49:40.878Z,101163.34
2022-11-10T13:52:19.119Z,101156.38
2022-11-10T13:55:24.055Z,101170.06
2022-11-10T13:58:03.906Z,101173.19
2022-11-10T14:00:37.466Z,101177.22
2022-11-10T14:03:09.789Z,101173.94
2022-11-10T14:06:19.127Z,101165.06
2022-11-10T14:08:57.856Z,101177.91
2022-11-10T14:11:38.224Z,101181.13
2022-11-10T14:14:19.453Z,101183.97
2022-11-10T14:16:50.852Z,101180.69
2022-11-10T14:19:38.856Z,101183.91
2022-11-10T14:22:25.131Z,101188.69
2022-11-10T14:25:07.271Z,101187.03
2022-11-10T14:27:41.402Z,101179.75
2022-11-10T14:30:27.296Z,101185.06
2022-11-10T14:33:01.507Z,101183.03
2022-11-10T14:35:35.402Z,101191.16
2022-11-10T14:38:20.334Z,101187.50
2022-11-10T14:40:52.657Z,101196.38
2022-11-10T14:43:32.867Z,101185.84
2022-11-10T14:46:05.199Z,101196.38
2022-11-10T14:48:40.850Z,101203.22
2022-11-10T14:51:17.126Z,101196.72
2022-11-10T14:53:55.536Z,101206.44
2022-11-10T14:56:29.731Z,101201.13
2022-11-10T14:59:04.148Z,101207.53
2022-11-10T15:01:41.204Z,101202.25
2022-11-10T15:04:16.462Z,101205.09
2022-11-10T15:06:52.003Z,101209.13
2022-11-10T15:09:31.367Z,101204.66
2022-11-10T15:12:22.447Z,101212.78
2022-11-10T15:15:01.626Z,101219.97
2022-11-10T15:17:50.896Z,101220.81
2022-11-10T15:20:41.875Z,101215.53
2022-11-10T15:23:27.989Z,101222.00
2022-11-10T15:26:03.243Z,101222.00
2022-11-10T15:28:35.932Z,101218.72
2022-11-10T15:31:10.374Z,101215.91
2022-11-10T15:33:47.801Z,101222.75
2022-11-10T15:36:32.440Z,101221.13
2022-11-10T15:39:20.475Z,101223.53
2022-11-10T15:42:00.103Z,101225.91
2022-11-10T15:44:30.580Z,101231.13
2022-11-10T15:47:02.776Z,101233.94
2022-11-10T15:49:38.466Z,101246.44
2022-11-10T15:52:18.751Z,101233.50
2022-11-10T15:54:48.973Z,101243.16
2022-11-10T15:57:22.996Z,101248.00
2022-11-10T15:59:53.494Z,101248.81
2022-11-10T16:02:27.190Z,101250.84
2022-11-10T16:04:59.914Z,101252.84
2022-11-10T16:07:31.128Z,101258.50
2022-11-10T16:10:02.065Z,101254.06
2022-11-10T16:12:35.401Z,101262.53
2022-11-10T16:15:07.048Z,101255.25
2022-11-10T16:17:38.454Z,101258.88
2022-11-10T16:20:17.792Z,101253.59
2022-11-10T16:22:48.380Z,101258.78
2022-11-10T16:25:27.507Z,101257.16
2022-11-10T16:28:05.241Z,101259.97
2022-11-10T16:30:36.529Z,101260.34
2022-11-10T16:33:07.520Z,101251.44
2022-11-10T16:35:37.960Z,101263.53
2022-11-10T16:38:28.666Z,101270.84
2022-11-10T16:41:01.933Z,101268.78
2022-11-10T16:43:34.261Z,101275.22
2022-11-10T16:46:15.876Z,101271.59
2022-11-10T16:48:49.178Z,101274.78
2022-11-10T16:51:20.433Z,101268.69
2022-11-10T16:53:53.128Z,101272.69
2022-11-10T16:56:23.722Z,101273.09
2022-11-10T16:59:02.506Z,101277.94
2022-11-10T17:01:36.295Z,101271.44
2022-11-10T17:04:12.440Z,101270.63
2022-11-10T17:06:43.811Z,101275.84
2022-11-10T17:09:20.596Z,101266.56
2022-11-10T17:11:51.256Z,101275.38
2022-11-10T17:14:23.796Z,101277.41
2022-11-10T17:16:56.662Z,101276.16
2022-11-10T17:19:29.723Z,101274.53
2022-11-10T17:22:00.015Z,101279.72
2022-11-10T17:24:30.551Z,101280.91
2022-11-10T17:27:00.559Z,101275.63
2022-11-10T17:29:33.317Z,101278.47
2022-11-10T17:32:03.766Z,101280.47
2022-11-10T17:34:34.493Z,101281.66
2022-11-10T17:37:05.174Z,101284.03
2022-11-10T17:39:36.725Z,101283.22
2022-11-10T17:42:07.460Z,101286.44
2022-11-10T17:44:41.751Z,101282.75
2022-11-10T17:47:12.333Z,101279.94
2022-11-10T17:49:42.864Z,101279.47
2022-11-10T17:52:20.998Z,101276.66
2022-11-10T17:54:51.711Z,101276.25
2022-11-10T17:57:22.549Z,101264.94
2022-11-10T17:59:55.929Z,101276.25
2022-11-10T18:02:26.436Z,101268.94
2022-11-10T18:05:10.258Z,101276.59
2022-11-10T18:07:40.827Z,101274.16
2022-11-10T18:10:14.574Z,101276.13
2022-11-10T18:12:45.574Z,101272.50
2022-11-10T18:15:20.343Z,101286.19
2022-11-10T18:17:50.725Z,101277.25
2022-11-10T18:20:21.397Z,101292.16
2022-11-10T18:22:51.576Z,101289.66
2022-11-10T18:25:21.888Z,101288.88
2022-11-10T18:27:51.521Z,101294.50
2022-11-10T18:30:24.621Z,101292.88
2022-11-10T18:32:54.811Z,101300.53
2022-11-10T18:35:25.467Z,101306.53
2022-11-10T18:37:56.053Z,101302.84
2022-11-10T18:40:26.631Z,101301.53
2022-11-10T18:43:03.148Z,101291.78
2022-11-10T18:45:39.494Z,101297.38
2022-11-10T18:48:10.412Z,101297.75
2022-11-10T18:50:41.629Z,101298.09
2022-11-10T18:53:15.195Z,101290.81
2022-11-10T18:55:55.632Z,101292.00
2022-11-10T18:58:25.647Z,101297.63
2022-11-10T19:01:06.508Z,101300.84
2022-11-10T19:03:39.130Z,101297.22
2022-11-10T19:06:09.939Z,101299.22
2022-11-10T19:08:40.944Z,101290.72
2022-11-10T19:11:13.655Z,101297.22
2022-11-10T19:13:44.422Z,101301.22
2022-11-10T19:16:19.884Z,101291.91
2022-11-10T19:19:07.993Z,101294.66
2022-11-10T19:21:38.019Z,101289.31
2022-11-10T19:24:09.357Z,101290.84
2022-11-10T19:26:39.501Z,101294.78
2022-11-10T19:29:09.956Z,101302.38
2022-11-10T19:31:42.114Z,101296.28
2022-11-10T19:34:12.090Z,101297.00
2022-11-10T19:36:42.665Z,101296.56
2022-11-10T19:39:13.503Z,101303.75
2022-11-10T19:41:44.067Z,101294.38
2022-11-10T19:44:14.047Z,101301.22
2022-11-10T19:46:47.243Z,101301.22
2022-11-10T19:49:18.131Z,101295.91
2022-11-10T19:51:48.353Z,101307.22
2022-11-10T19:54:20.093Z,101295.91
2022-11-10T19:56:50.184Z,101302.41
2022-11-10T19:59:21.627Z,101304.38
2022-11-10T20:01:54.170Z,101298.75
2022-11-10T20:04:24.956Z,101302.41
2022-11-10T20:07:14.818Z,101300.75
2022-11-10T20:09:44.757Z,101314.88
2022-11-10T20:12:15.204Z,101303.59
2022-11-10T20:14:45.363Z,101316.88
2022-11-10T20:17:18.156Z,101312.44
2022-11-10T20:19:49.354Z,101319.25
2022-11-10T20:22:19.545Z,101323.59
2022-11-10T20:24:52.367Z,101320.34
2022-11-10T20:27:23.055Z,101319.06
2022-11-10T20:29:54.445Z,101322.22
2022-11-10T20:32:28.551Z,101322.59
2022-11-10T20:34:58.704Z,101331.41
2022-11-10T20:37:29.279Z,101327.41
2022-11-10T20:39:59.825Z,101327.78
2022-11-10T20:42:30.259Z,101320.97
2022-11-10T20:45:01.244Z,101324.97
2022-11-10T20:47:33.750Z,101328.97
2022-11-10T20:50:04.245Z,101335.78
2022-11-10T20:52:36.195Z,101335.78
2022-11-10T20:55:07.851Z,101329.34
2022-11-10T20:57:38.732Z,101337.78
2022-11-10T21:00:10.721Z,101322.84
2022-11-10T21:02:42.885Z,101332.50
2022-11-10T21:05:13.753Z,101334.88
2022-11-10T21:07:44.284Z,101334.06
2022-11-10T21:10:14.719Z,101332.41
2022-11-10T21:12:55.076Z,101334.44
2022-11-10T21:15:25.451Z,101338.81
2022-11-10T21:17:57.279Z,101337.16
2022-11-10T21:20:28.211Z,101325.88
2022-11-10T21:23:03.186Z,101332.69
2022-11-10T21:25:33.758Z,101333.88
2022-11-10T21:28:06.039Z,101329.41
2022-11-10T21:30:36.604Z,101332.25
2022-11-10T21:33:11.132Z,101337.41
2022-11-10T21:35:41.608Z,101328.97
2022-11-10T21:38:15.654Z,101327.31
2022-11-10T21:40:45.948Z,101329.34
2022-11-10T21:43:16.322Z,101326.50
2022-11-10T21:45:47.424Z,101336.97
2022-11-10T21:48:19.926Z,101327.69
2022-11-10T21:50:50.220Z,101331.69
2022-11-10T21:53:21.775Z,101333.34
2022-11-10T21:55:53.219Z,101326.06
2022-11-10T21:58:23.659Z,101324.41
2022-11-10T22:00:54.683Z,101334.88
2022-11-10T22:03:27.745Z,101329.25
2022-11-10T22:06:19.570Z,101338.88
2022-11-10T22:08:50.527Z,101335.59
2022-11-10T22:11:39.764Z,101332.78
2022-11-10T22:14:32.290Z,101332.31
2022-11-10T22:17:19.900Z,101334.69
2022-11-10T22:19:52.265Z,101331.06
2022-11-10T22:22:22.665Z,101330.22
2022-11-10T22:24:53.311Z,101330.22
2022-11-10T22:27:23.479Z,101325.78
2022-11-10T22:29:54.022Z,101332.59
2022-11-10T22:32:24.541Z,101335.44
2022-11-10T22:34:57.076Z,101331.78
2022-11-10T22:37:36.259Z,101339.44
2022-11-10T22:40:23.809Z,101336.94
2022-11-10T22:43:10.023Z,101342.16
2022-11-10T22:45:39.725Z,101337.69
2022-11-10T22:48:26.257Z,101336.84
2022-11-10T22:51:02.306Z,101331.59
2022-11-10T22:53:32.879Z,101333.56
2022-11-10T22:56:03.622Z,101329.94
2022-11-10T22:58:33.312Z,101326.31
2022-11-10T23:01:08.738Z,101325.50
2022-11-10T23:03:40.231Z,101323.03
2022-11-10T23:06:13.510Z,101323.38
2022-11-10T23:08:44.908Z,101322.94
2022-11-10T23:11:17.283Z,101321.31
2022-11-10T23:13:48.087Z,101320.00
2022-11-10T23:16:21.008Z,101322.41
2022-11-10T23:18:53.924Z,101324.75
2022-11-10T23:21:29.902Z,101324.28
2022-11-10T23:24:00.321Z,101317.72
2022-11-10T23:26:34.316Z,101316.78
2022-11-10T23:29:04.366Z,101307.41
2022-11-10T23:31:34.862Z,101317.41
2022-11-10T23:34:05.685Z,101315.31
2022-11-10T23:36:37.615Z,101312.06
2022-11-10T23:39:19.706Z,101315.22
2022-11-10T23:41:50.236Z,101311.94
2022-11-10T23:44:21.143Z,101312.28
2022-11-10T23:46:51.431Z,101305.38
2022-11-10T23:49:22.440Z,101305.28
2022-11-10T23:51:55.362Z,101300.38
2022-11-10T23:54:25.619Z,101304.72
2022-11-10T23:56:56.344Z,101302.63
2022-11-10T23:59:27.497Z,101303.34
